createdAt,value
2022-08-08T00:01:09.281Z,17.20
2022-08-08T00:03:59.619Z,17.20
2022-08-08T00:06:35.147Z,17.20
2022-08-08T00:09:07.832Z,17.20
2022-08-08T00:12:02.873Z,17.20
2022-08-08T00:14:57.031Z,17.20
2022-08-08T00:17:24.564Z,17.10
2022-08-08T00:19:58.405Z,17.00
2022-08-08T00:22:28.795Z,16.90
2022-08-08T00:25:00.564Z,16.80
2022-08-08T00:27:34.703Z,16.80
2022-08-08T00:30:11.297Z,16.80
2022-08-08T00:33:04.259Z,16.80
2022-08-08T00:36:08.673Z,16.70
2022-08-08T00:38:44.544Z,16.70
2022-08-08T00:41:22.106Z,16.60
2022-08-08T00:44:25.660Z,16.60
2022-08-08T00:47:19.673Z,16.60
2022-08-08T00:50:18.504Z,16.60
2022-08-08T00:53:15.644Z,16.50
2022-08-08T00:56:29.528Z,16.50
2022-08-08T00:59:18.639Z,16.50
2022-08-08T01:03:59.510Z,16.40
2022-08-08T01:06:02.448Z,16.30
2022-08-08T01:08:52.263Z,16.30
2022-08-08T01:11:37.749Z,16.30
2022-08-08T01:14:18.290Z,16.30
2022-08-08T01:17:35.052Z,16.20
2022-08-08T01:20:30.560Z,16.20
2022-08-08T01:24:05.581Z,16.10
2022-08-08T01:26:24.134Z,16.00
2022-08-08T01:29:23.885Z,16.00
2022-08-08T01:32:16.205Z,15.90
2022-08-08T01:35:19.516Z,15.90
2022-08-08T01:38:19.293Z,16.00
2022-08-08T01:41:11.488Z,15.90
2022-08-08T01:43:53.480Z,16.00
2022-08-08T01:46:30.510Z,15.90
2022-08-08T01:49:37.175Z,15.90
2022-08-08T01:53:14.888Z,15.80
2022-08-08T01:55:44.891Z,15.70
2022-08-08T01:58:38.270Z,15.60
2022-08-08T02:01:15.892Z,15.60
2022-08-08T02:04:02.496Z,15.60
2022-08-08T02:06:43.908Z,15.60
2022-08-08T02:09:20.189Z,15.60
2022-08-08T02:12:16.200Z,15.60
2022-08-08T02:14:58.973Z,15.70
2022-08-08T02:17:42.885Z,15.60
2022-08-08T02:21:01.339Z,15.50
2022-08-08T02:23:32.030Z,15.50
2022-08-08T02:26:25.119Z,15.40
2022-08-08T02:28:59.971Z,15.30
2022-08-08T02:32:00.925Z,15.20
2022-08-08T02:35:06.271Z,15.20
2022-08-08T02:37:56.668Z,15.30
2022-08-08T02:40:48.878Z,15.30
2022-08-08T02:44:38.279Z,15.30
2022-08-08T02:46:52.284Z,15.30
2022-08-08T02:49:51.489Z,15.30
2022-08-08T02:56:08.621Z,15.30
2022-08-08T02:59:26.243Z,15.20
2022-08-08T03:02:00.031Z,15.20
2022-08-08T03:05:02.420Z,15.30
2022-08-08T03:08:05.005Z,15.30
2022-08-08T03:10:56.923Z,15.20
2022-08-08T03:15:56.574Z,15.20
2022-08-08T03:16:43.469Z,15.10
2022-08-08T03:19:27.881Z,15.00
2022-08-08T03:21:58.746Z,14.90
2022-08-08T03:24:27.136Z,14.80
2022-08-08T03:27:16.031Z,14.80
2022-08-08T03:29:56.144Z,14.80
2022-08-08T03:32:42.479Z,14.80
2022-08-08T03:35:21.989Z,14.80
2022-08-08T03:38:53.755Z,14.90
2022-08-08T03:40:35.830Z,14.90
2022-08-08T03:43:16.681Z,14.90
2022-08-08T03:46:02.998Z,14.90
2022-08-08T03:49:09.434Z,14.80
2022-08-08T03:51:19.511Z,14.80
2022-08-08T03:54:04.472Z,14.80
2022-08-08T03:56:33.176Z,14.70
2022-08-08T03:59:00.273Z,14.70
2022-08-08T04:02:13.261Z,14.80
2022-08-08T04:04:30.575Z,14.70
2022-08-08T04:07:01.328Z,14.60
2022-08-08T04:09:30.826Z,14.50
2022-08-08T04:12:15.815Z,14.40
2022-08-08T04:14:50.521Z,14.30
2022-08-08T04:17:45.670Z,13.40
2022-08-08T04:20:05.515Z,14.40
2022-08-08T04:22:35.353Z,14.50
2022-08-08T04:25:02.552Z,14.50
2022-08-08T04:28:01.614Z,14.50
2022-08-08T04:30:18.418Z,14.50
2022-08-08T04:32:49.882Z,14.50
2022-08-08T04:35:20.330Z,14.50
2022-08-08T04:37:50.695Z,14.50
2022-08-08T04:40:18.120Z,14.50
2022-08-08T04:42:56.309Z,14.60
2022-08-08T04:45:25.558Z,14.60
2022-08-08T04:47:53.377Z,14.60
2022-08-08T04:50:25.241Z,14.60
2022-08-08T04:53:00.397Z,14.60
2022-08-08T04:55:29.323Z,14.60
2022-08-08T04:58:15.195Z,14.60
2022-08-08T05:00:44.967Z,14.70
2022-08-08T05:03:12.438Z,14.80
2022-08-08T05:05:39.687Z,15.00
2022-08-08T05:08:13.817Z,15.00
2022-08-08T05:10:40.796Z,15.10
2022-08-08T05:13:12.729Z,15.20
2022-08-08T05:16:53.641Z,15.30
2022-08-08T05:18:33.480Z,15.40
2022-08-08T05:21:00.539Z,15.60
2022-08-08T05:23:32.978Z,15.80
2022-08-08T05:26:08.395Z,16.00
2022-08-08T05:28:48.152Z,16.30
2022-08-08T05:32:04.075Z,16.70
2022-08-08T05:34:20.655Z,17.10
2022-08-08T05:36:48.246Z,17.70
2022-08-08T05:39:16.557Z,18.10
2022-08-08T05:41:54.904Z,18.50
2022-08-08T05:44:31.224Z,18.90
2022-08-08T05:47:02.781Z,19.30
2022-08-08T05:49:31.127Z,19.50
2022-08-08T05:51:57.994Z,20.00
2022-08-08T05:54:42.956Z,20.40
2022-08-08T05:57:15.531Z,20.70
2022-08-08T05:59:58.801Z,21.20
2022-08-08T06:03:08.054Z,21.60
2022-08-08T06:05:36.390Z,22.10
2022-08-08T06:08:10.303Z,22.70
2022-08-08T06:10:50.883Z,23.10
2022-08-08T06:13:22.907Z,23.60
2022-08-08T06:15:53.485Z,24.00
2022-08-08T06:18:22.319Z,24.30
2022-08-08T06:20:50.415Z,24.50
2022-08-08T06:23:21.475Z,24.60
2022-08-08T06:26:44.919Z,24.80
2022-08-08T06:29:26.417Z,25.10
2022-08-08T06:32:10.561Z,25.30
2022-08-08T06:34:40.527Z,25.60
2022-08-08T06:37:24.641Z,25.70
2022-08-08T06:39:56.047Z,25.50
2022-08-08T06:42:23.816Z,25.40
2022-08-08T06:44:51.260Z,25.30
2022-08-08T06:47:21.907Z,25.30
2022-08-08T06:49:56.756Z,25.30
2022-08-08T06:52:23.979Z,25.30
2022-08-08T06:54:58.681Z,25.30
2022-08-08T06:57:29.213Z,25.60
2022-08-08T07:00:12.872Z,25.90
2022-08-08T07:02:45.271Z,26.10
2022-08-08T07:05:20.536Z,26.10
2022-08-08T07:08:31.534Z,26.30
2022-08-08T07:11:00.154Z,26.60
2022-08-08T07:13:33.172Z,26.80
2022-08-08T07:16:06.270Z,26.90
2022-08-08T07:18:57.492Z,27.00
2022-08-08T07:21:31.292Z,27.30
2022-08-08T07:24:03.584Z,27.60
2022-08-08T07:26:35.530Z,27.90
2022-08-08T07:29:05.880Z,28.00
2022-08-08T07:31:36.000Z,28.20
2022-08-08T07:34:04.060Z,28.60
2022-08-08T07:36:37.349Z,28.80
2022-08-08T07:39:16.187Z,28.80
2022-08-08T07:42:04.477Z,29.00
2022-08-08T07:44:33.469Z,29.30
2022-08-08T07:47:05.268Z,29.40
2022-08-08T07:49:32.389Z,29.60
2022-08-08T07:51:59.215Z,29.70
2022-08-08T07:54:42.063Z,29.80
2022-08-08T07:57:25.671Z,29.80
2022-08-08T08:00:05.028Z,29.20
2022-08-08T08:02:45.426Z,28.70
2022-08-08T08:05:33.008Z,28.80
2022-08-08T08:08:05.575Z,28.90
2022-08-08T08:10:33.309Z,29.20
2022-08-08T08:13:42.888Z,29.50
2022-08-08T08:16:24.190Z,29.70
2022-08-08T08:18:56.059Z,30.00
2022-08-08T08:21:44.312Z,30.10
2022-08-08T08:24:12.595Z,30.10
2022-08-08T08:26:39.498Z,30.30
2022-08-08T08:29:16.580Z,30.30
2022-08-08T08:31:46.307Z,30.40
2022-08-08T08:34:24.901Z,30.50
2022-08-08T08:36:59.655Z,30.50
2022-08-08T08:39:39.292Z,30.70
2022-08-08T08:42:13.383Z,31.00
2022-08-08T08:44:40.209Z,31.20
2022-08-08T08:47:09.209Z,31.30
2022-08-08T08:49:37.294Z,31.50
2022-08-08T08:52:10.102Z,31.40
2022-08-08T08:54:38.520Z,31.50
2022-08-08T08:57:15.546Z,31.70
2022-08-08T08:59:59.566Z,31.90
2022-08-08T09:02:31.341Z,32.10
2022-08-08T09:05:01.842Z,32.40
2022-08-08T09:07:39.241Z,32.40
2022-08-08T09:10:17.401Z,32.20
2022-08-08T09:12:46.206Z,32.10
2022-08-08T09:15:13.243Z,31.90
2022-08-08T09:17:41.619Z,31.90
2022-08-08T09:21:59.984Z,31.60
2022-08-08T09:23:05.847Z,31.50
2022-08-08T09:25:54.528Z,31.50
2022-08-08T09:28:37.272Z,31.60
2022-08-08T09:31:16.367Z,31.70
2022-08-08T09:34:14.958Z,31.60
2022-08-08T09:36:33.188Z,31.40
2022-08-08T09:39:03.632Z,31.60
2022-08-08T09:42:08.011Z,31.70
2022-08-08T09:45:03.987Z,31.70
2022-08-08T09:48:09.539Z,31.80
2022-08-08T09:50:26.820Z,31.90
2022-08-08T09:52:58.403Z,32.10
2022-08-08T09:55:51.350Z,32.30
2022-08-08T09:58:25.833Z,32.50
2022-08-08T10:00:57.097Z,32.60
2022-08-08T10:03:24.753Z,32.80
2022-08-08T10:05:51.685Z,32.90
2022-08-08T10:08:18.534Z,33.00
2022-08-08T10:10:51.063Z,32.80
2022-08-08T10:13:25.921Z,32.70
2022-08-08T10:16:00.956Z,32.70
2022-08-08T10:18:35.738Z,32.50
2022-08-08T10:21:24.814Z,32.30
2022-08-08T10:24:12.197Z,32.00
2022-08-08T10:27:01.298Z,32.00
2022-08-08T10:29:58.651Z,31.80
2022-08-08T10:32:34.328Z,31.60
2022-08-08T10:36:09.783Z,31.50
2022-08-08T10:38:13.581Z,31.30
2022-08-08T10:40:40.654Z,31.00
2022-08-08T10:43:09.833Z,30.80
2022-08-08T10:45:57.235Z,30.30
2022-08-08T10:48:56.071Z,30.00
2022-08-08T10:51:47.572Z,29.80
2022-08-08T10:54:24.826Z,30.00
2022-08-08T10:56:59.771Z,30.40
2022-08-08T10:59:27.075Z,30.80
2022-08-08T11:01:58.113Z,31.20
2022-08-08T11:04:29.428Z,31.50
2022-08-08T11:07:00.554Z,31.40
2022-08-08T11:09:27.325Z,31.40
2022-08-08T11:12:05.193Z,31.30
2022-08-08T11:14:57.142Z,31.20
2022-08-08T11:17:59.560Z,31.10
2022-08-08T11:20:24.998Z,31.00
2022-08-08T11:22:59.289Z,30.80
2022-08-08T11:25:52.663Z,30.30
2022-08-08T11:28:20.118Z,29.80
2022-08-08T11:30:50.335Z,29.20
2022-08-08T11:33:20.745Z,29.10
2022-08-08T11:35:48.498Z,29.50
2022-08-08T11:38:35.184Z,29.80
2022-08-08T11:41:04.739Z,30.10
2022-08-08T11:43:38.824Z,30.30
2022-08-08T11:46:13.393Z,30.70
2022-08-08T11:48:46.883Z,31.10
2022-08-08T11:51:29.512Z,31.50
2022-08-08T11:54:02.281Z,31.70
2022-08-08T11:56:35.078Z,32.10
2022-08-08T11:59:09.604Z,32.40
2022-08-08T12:01:37.127Z,32.60
2022-08-08T12:04:05.221Z,32.70
2022-08-08T12:06:32.722Z,32.50
2022-08-08T12:09:08.978Z,32.50
2022-08-08T12:11:40.113Z,32.30
2022-08-08T12:14:07.834Z,32.10
2022-08-08T12:16:48.858Z,32.00
2022-08-08T12:19:16.019Z,31.90
2022-08-08T12:22:00.422Z,32.00
2022-08-08T12:24:51.174Z,32.10
2022-08-08T12:27:20.933Z,32.30
2022-08-08T12:29:59.069Z,32.50
2022-08-08T12:32:26.069Z,32.70
2022-08-08T12:35:04.672Z,32.90
2022-08-08T12:37:43.152Z,33.20
2022-08-08T12:40:22.561Z,33.50
2022-08-08T12:42:50.285Z,33.60
2022-08-08T12:45:54.042Z,33.50
2022-08-08T12:48:17.978Z,33.30
2022-08-08T12:50:57.739Z,33.20
2022-08-08T12:53:37.750Z,33.10
2022-08-08T12:56:19.486Z,33.00
2022-08-08T12:58:52.074Z,33.00
2022-08-08T13:01:34.548Z,32.70
2022-08-08T13:04:25.323Z,32.30
2022-08-08T13:06:54.161Z,31.80
2022-08-08T13:10:05.276Z,31.60
2022-08-08T13:12:32.624Z,31.70
2022-08-08T13:15:02.465Z,32.00
2022-08-08T13:18:08.748Z,32.30
2022-08-08T13:20:18.543Z,32.60
2022-08-08T13:22:45.528Z,33.00
2022-08-08T13:25:17.062Z,33.20
2022-08-08T13:27:44.033Z,33.40
2022-08-08T13:30:18.826Z,33.60
2022-08-08T13:32:48.191Z,34.00
2022-08-08T13:35:24.919Z,34.40
2022-08-08T13:38:06.552Z,34.60
2022-08-08T13:40:35.261Z,34.90
2022-08-08T13:43:02.507Z,35.20
2022-08-08T13:45:31.421Z,35.50
2022-08-08T13:48:03.094Z,35.70
2022-08-08T13:50:48.851Z,35.80
2022-08-08T13:53:36.116Z,36.00
2022-08-08T13:56:11.638Z,35.60
2022-08-08T13:58:56.218Z,35.50
2022-08-08T14:01:41.972Z,35.40
2022-08-08T14:04:21.062Z,35.50
2022-08-08T14:06:48.497Z,35.30
2022-08-08T14:09:25.585Z,35.50
2022-08-08T14:12:00.219Z,35.80
2022-08-08T14:14:41.706Z,36.10
2022-08-08T14:17:11.876Z,36.50
2022-08-08T14:19:57.739Z,36.80
2022-08-08T14:22:36.886Z,37.10
2022-08-08T14:25:07.469Z,36.70
2022-08-08T14:27:40.402Z,36.30
2022-08-08T14:30:17.387Z,36.00
2022-08-08T14:32:54.849Z,35.60
2022-08-08T14:35:35.439Z,35.40
2022-08-08T14:38:34.555Z,35.50
2022-08-08T14:40:59.014Z,35.60
2022-08-08T14:44:02.266Z,35.70
2022-08-08T14:46:16.677Z,36.00
2022-08-08T14:48:52.254Z,36.20
2022-08-08T14:51:24.991Z,35.90
2022-08-08T14:53:59.089Z,35.20
2022-08-08T14:56:26.178Z,34.50
2022-08-08T14:58:54.722Z,33.60
2022-08-08T15:01:40.970Z,32.70
2022-08-08T15:04:09.541Z,32.00
2022-08-08T15:06:37.405Z,31.60
2022-08-08T15:09:06.930Z,31.20
2022-08-08T15:11:43.013Z,30.80
2022-08-08T15:14:14.321Z,30.60
2022-08-08T15:16:44.432Z,30.40
2022-08-08T15:19:11.465Z,30.10
2022-08-08T15:21:43.008Z,30.00
2022-08-08T15:24:12.654Z,29.90
2022-08-08T15:26:41.708Z,29.90
2022-08-08T15:29:08.596Z,29.80
2022-08-08T15:32:03.775Z,29.60
2022-08-08T15:34:31.686Z,29.30
2022-08-08T15:37:01.901Z,29.10
2022-08-08T15:39:31.676Z,29.10
2022-08-08T15:42:06.893Z,29.10
2022-08-08T15:44:37.533Z,28.90
2022-08-08T15:47:07.304Z,28.70
2022-08-08T15:49:43.854Z,28.50
2022-08-08T15:52:12.981Z,28.60
2022-08-08T15:54:46.253Z,28.50
2022-08-08T15:57:15.414Z,28.50
2022-08-08T16:00:05.536Z,28.40
2022-08-08T16:02:31.307Z,28.50
2022-08-08T16:05:00.060Z,28.50
2022-08-08T16:07:39.661Z,28.50
2022-08-08T16:13:09.239Z,28.50
2022-08-08T16:13:27.590Z,28.60
2022-08-08T16:15:59.415Z,28.50
2022-08-08T16:18:35.850Z,28.40
2022-08-08T16:21:02.607Z,28.30
2022-08-08T16:23:31.751Z,28.20
2022-08-08T16:26:04.997Z,28.10
2022-08-08T16:28:41.376Z,28.10
2022-08-08T16:31:09.346Z,28.10
2022-08-08T16:33:38.667Z,28.00
2022-08-08T16:36:12.902Z,28.00
2022-08-08T16:38:47.297Z,28.10
2022-08-08T16:41:22.433Z,28.10
2022-08-08T16:43:51.595Z,28.10
2022-08-08T16:46:39.305Z,28.00
2022-08-08T16:49:09.420Z,27.90
2022-08-08T16:55:00.524Z,27.50
2022-08-08T16:55:03.234Z,27.70
2022-08-08T16:57:40.704Z,27.30
2022-08-08T17:00:06.527Z,27.10
2022-08-08T17:02:39.297Z,27.00
2022-08-08T17:05:07.348Z,26.90
2022-08-08T17:07:37.413Z,26.80
2022-08-08T17:10:09.875Z,26.80
2022-08-08T17:12:37.268Z,26.80
2022-08-08T17:15:17.411Z,26.80
2022-08-08T17:18:03.139Z,26.70
2022-08-08T17:20:39.978Z,26.70
2022-08-08T17:23:18.251Z,26.60
2022-08-08T17:25:54.472Z,26.60
2022-08-08T17:28:31.548Z,26.50
2022-08-08T17:31:39.626Z,26.50
2022-08-08T17:34:49.420Z,26.40
2022-08-08T17:36:38.074Z,26.30
2022-08-08T17:40:04.787Z,26.30
2022-08-08T17:42:11.841Z,26.20
2022-08-08T17:44:39.819Z,26.20
2022-08-08T17:47:11.056Z,26.00
2022-08-08T17:49:43.543Z,26.00
2022-08-08T17:52:11.120Z,25.90
2022-08-08T17:54:39.164Z,25.90
2022-08-08T17:57:06.109Z,25.90
2022-08-08T17:59:36.239Z,25.80
2022-08-08T18:02:18.498Z,25.80
2022-08-08T18:04:50.752Z,25.70
2022-08-08T18:08:01.757Z,25.60
2022-08-08T18:10:05.570Z,25.60
2022-08-08T18:12:32.688Z,25.50
2022-08-08T18:15:00.420Z,25.50
2022-08-08T18:18:05.130Z,25.40
2022-08-08T18:20:43.989Z,25.30
2022-08-08T18:23:01.519Z,25.30
2022-08-08T18:25:28.542Z,25.10
2022-08-08T18:28:04.701Z,25.00
2022-08-08T18:30:33.058Z,24.90
2022-08-08T18:32:59.833Z,24.80
2022-08-08T18:35:34.163Z,24.70
2022-08-08T18:38:17.017Z,24.60
2022-08-08T18:40:46.150Z,24.50
2022-08-08T18:43:16.517Z,24.40
2022-08-08T18:46:06.216Z,24.20
2022-08-08T18:48:31.258Z,24.20
2022-08-08T18:50:58.962Z,24.00
2022-08-08T18:53:50.995Z,24.00
2022-08-08T18:56:21.065Z,23.80
2022-08-08T18:58:49.303Z,23.70
2022-08-08T19:02:25.575Z,23.50
2022-08-08T19:04:10.831Z,23.50
2022-08-08T19:06:38.073Z,23.30
2022-08-08T19:09:13.424Z,23.30
2022-08-08T19:11:46.554Z,23.20
2022-08-08T19:14:20.608Z,23.10
2022-08-08T19:16:48.061Z,23.00
2022-08-08T19:19:15.826Z,22.90
2022-08-08T19:21:48.601Z,22.80
2022-08-08T19:24:38.066Z,22.70
2022-08-08T19:27:04.048Z,22.60
2022-08-08T19:29:30.960Z,22.60
2022-08-08T19:31:57.928Z,22.50
2022-08-08T19:34:35.575Z,22.40
2022-08-08T19:37:05.548Z,22.30
2022-08-08T19:39:35.434Z,22.20
2022-08-08T19:42:06.761Z,22.10
2022-08-08T19:44:45.536Z,22.00
2022-08-08T19:47:14.101Z,22.00
2022-08-08T19:49:43.364Z,21.90
2022-08-08T19:52:35.535Z,21.80
2022-08-08T19:55:12.659Z,21.70
2022-08-08T19:57:41.142Z,21.70
2022-08-08T20:00:30.014Z,21.50
2022-08-08T20:03:01.729Z,21.50
2022-08-08T20:06:13.433Z,21.40
2022-08-08T20:08:32.115Z,21.30
2022-08-08T20:11:02.043Z,21.20
2022-08-08T20:14:31.885Z,21.20
2022-08-08T20:16:16.586Z,21.10
2022-08-08T20:18:53.189Z,21.00
2022-08-08T20:21:24.968Z,20.70
2022-08-08T20:23:57.616Z,20.70
2022-08-08T20:26:27.514Z,20.60
2022-08-08T20:28:56.713Z,20.50
2022-08-08T20:31:23.455Z,20.40
2022-08-08T20:34:28.205Z,20.30
2022-08-08T20:36:38.635Z,20.20
2022-08-08T20:39:06.127Z,20.20
2022-08-08T20:41:34.027Z,20.10
2022-08-08T20:44:01.088Z,20.10
2022-08-08T20:46:29.490Z,20.00
2022-08-08T20:48:58.458Z,19.90
2022-08-08T20:51:27.404Z,19.80
2022-08-08T20:54:03.353Z,19.80
2022-08-08T20:57:04.854Z,19.70
2022-08-08T20:59:24.707Z,19.70
2022-08-08T21:02:06.333Z,19.60
2022-08-08T21:04:35.406Z,19.60
2022-08-08T21:07:08.059Z,19.50
2022-08-08T21:10:02.197Z,19.40
2022-08-08T21:12:24.884Z,19.40
2022-08-08T21:14:59.268Z,19.40
2022-08-08T21:17:34.970Z,19.30
2022-08-08T21:20:03.771Z,19.30
2022-08-08T21:22:30.945Z,19.30
2022-08-08T21:24:58.307Z,19.30
2022-08-08T21:28:05.778Z,19.20
2022-08-08T21:30:18.641Z,19.20
2022-08-08T21:32:51.121Z,19.20
2022-08-08T21:36:16.498Z,19.10
2022-08-08T21:38:08.573Z,19.00
2022-08-08T21:40:55.468Z,19.00
2022-08-08T21:43:25.586Z,18.90
2022-08-08T21:48:20.364Z,18.80
2022-08-08T21:48:51.035Z,18.70
2022-08-08T21:51:46.038Z,18.50
2022-08-08T21:54:31.087Z,18.40
2022-08-08T21:56:53.759Z,18.40
2022-08-08T21:59:20.869Z,18.30
2022-08-08T22:01:52.435Z,18.30
2022-08-08T22:04:22.576Z,18.40
2022-08-08T22:06:51.685Z,18.40
2022-08-08T22:09:18.552Z,18.40
2022-08-08T22:11:51.085Z,18.30
2022-08-08T22:14:30.032Z,18.20
2022-08-08T22:16:56.978Z,18.10
2022-08-08T22:19:29.719Z,17.90
2022-08-08T22:21:56.844Z,17.90
2022-08-08T22:24:23.977Z,17.90
2022-08-08T22:27:01.844Z,17.90
2022-08-08T22:29:59.737Z,17.80
2022-08-08T22:32:19.064Z,17.70
2022-08-08T22:34:51.219Z,17.70
2022-08-08T22:37:48.820Z,17.60
2022-08-08T22:40:11.795Z,17.60
2022-08-08T22:42:43.634Z,17.60
2022-08-08T22:45:14.164Z,17.50
2022-08-08T22:47:47.147Z,17.50
2022-08-08T22:50:25.767Z,17.40
2022-08-08T22:53:22.324Z,17.30
2022-08-08T22:55:59.007Z,17.20
2022-08-08T22:58:33.106Z,17.20
2022-08-08T23:01:16.498Z,17.20
2022-08-08T23:03:55.478Z,17.10
2022-08-08T23:06:24.535Z,17.10
2022-08-08T23:08:55.272Z,17.00
2022-08-08T23:11:23.459Z,17.00
2022-08-08T23:14:11.595Z,17.00
2022-08-08T23:16:43.966Z,17.00
2022-08-08T23:19:15.299Z,17.00
2022-08-08T23:21:42.589Z,17.00
2022-08-08T23:24:09.378Z,17.00
2022-08-08T23:26:36.144Z,17.00
2022-08-08T23:29:10.860Z,17.00
2022-08-08T23:31:38.879Z,16.90
2022-08-08T23:34:16.644Z,16.90
2022-08-08T23:36:45.825Z,16.80
2022-08-08T23:39:12.981Z,16.70
2022-08-08T23:41:46.172Z,16.60
2022-08-08T23:44:14.329Z,16.60
2022-08-08T23:49:05.981Z,16.60
2022-08-08T23:49:27.974Z,16.60
2022-08-08T23:52:05.016Z,16.60
2022-08-08T23:54:41.759Z,16.60
2022-08-08T23:57:27.478Z,16.60
